sensor_id;sensor_type;location;lat;lon;timestamp;P1;durP1;ratioP1;P2;durP2;ratioP2
24485;SDS011;13449;49.374;8.584;2023-05-21T00:00:25;18.85;;;9.48;;
24485;SDS011;13449;49.374;8.584;2023-05-21T00:02:52;20.98;;;9.00;;
24485;SDS011;13449;49.374;8.584;2023-05-21T00:05:19;20.40;;;10.38;;
24485;SDS011;13449;49.374;8.584;2023-05-21T00:07:46;16.55;;;9.50;;
24485;SDS011;13449;49.374;8.584;2023-05-21T00:10:13;18.27;;;9.05;;
24485;SDS011;13449;49.374;8.584;2023-05-21T00:12:41;23.05;;;9.65;;
24485;SDS011;13449;49.374;8.584;2023-05-21T00:15:08;18.60;;;9.55;;
24485;SDS011;13449;49.374;8.584;2023-05-21T00:17:36;18.48;;;10.32;;
24485;SDS011;13449;49.374;8.584;2023-05-21T00:20:05;16.38;;;9.98;;
24485;SDS011;13449;49.374;8.584;2023-05-21T00:22:35;16.20;;;10.35;;
24485;SDS011;13449;49.374;8.584;2023-05-21T00:25:01;21.05;;;12.32;;
24485;SDS011;13449;49.374;8.584;2023-05-21T00:27:33;18.70;;;12.07;;
24485;SDS011;13449;49.374;8.584;2023-05-21T00:30:05;17.05;;;10.30;;
24485;SDS011;13449;49.374;8.584;2023-05-21T00:32:32;18.23;;;10.30;;
24485;SDS011;13449;49.374;8.584;2023-05-21T00:34:59;16.67;;;10.38;;
24485;SDS011;13449;49.374;8.584;2023-05-21T00:37:25;18.65;;;10.25;;
24485;SDS011;13449;49.374;8.584;2023-05-21T00:39:54;16.33;;;10.20;;
24485;SDS011;13449;49.374;8.584;2023-05-21T00:42:23;23.23;;;9.95;;
24485;SDS011;13449;49.374;8.584;2023-05-21T00:44:52;21.17;;;10.43;;
24485;SDS011;13449;49.374;8.584;2023-05-21T00:47:22;20.45;;;9.48;;
24485;SDS011;13449;49.374;8.584;2023-05-21T00:49:49;19.67;;;10.18;;
24485;SDS011;13449;49.374;8.584;2023-05-21T00:52:19;21.00;;;9.90;;
24485;SDS011;13449;49.374;8.584;2023-05-21T00:54:49;18.15;;;10.48;;
24485;SDS011;13449;49.374;8.584;2023-05-21T00:57:20;18.73;;;9.98;;
24485;SDS011;13449;49.374;8.584;2023-05-21T00:59:51;17.45;;;10.68;;
24485;SDS011;13449;49.374;8.584;2023-05-21T01:02:18;16.10;;;9.85;;
24485;SDS011;13449;49.374;8.584;2023-05-21T01:04:45;17.13;;;10.00;;
24485;SDS011;13449;49.374;8.584;2023-05-21T01:07:13;20.13;;;10.40;;
24485;SDS011;13449;49.374;8.584;2023-05-21T01:09:40;20.60;;;10.25;;
24485;SDS011;13449;49.374;8.584;2023-05-21T01:12:10;20.10;;;10.10;;
24485;SDS011;13449;49.374;8.584;2023-05-21T01:14:42;18.38;;;9.70;;
24485;SDS011;13449;49.374;8.584;2023-05-21T01:17:10;18.25;;;9.50;;
24485;SDS011;13449;49.374;8.584;2023-05-21T01:19:38;19.20;;;10.48;;
24485;SDS011;13449;49.374;8.584;2023-05-21T01:22:05;19.88;;;10.90;;
24485;SDS011;13449;49.374;8.584;2023-05-21T01:24:33;20.95;;;10.23;;
24485;SDS011;13449;49.374;8.584;2023-05-21T01:27:00;17.58;;;9.50;;
24485;SDS011;13449;49.374;8.584;2023-05-21T01:29:28;16.85;;;8.88;;
24485;SDS011;13449;49.374;8.584;2023-05-21T01:34:31;19.15;;;10.65;;
24485;SDS011;13449;49.374;8.584;2023-05-21T01:39:40;18.92;;;10.75;;
24485;SDS011;13449;49.374;8.584;2023-05-21T01:42:09;18.08;;;10.75;;
24485;SDS011;13449;49.374;8.584;2023-05-21T01:44:39;22.08;;;10.98;;
24485;SDS011;13449;49.374;8.584;2023-05-21T01:47:06;18.42;;;10.52;;
24485;SDS011;13449;49.374;8.584;2023-05-21T01:49:33;13.13;;;9.00;;
24485;SDS011;13449;49.374;8.584;2023-05-21T01:52:00;20.25;;;10.65;;
24485;SDS011;13449;49.374;8.584;2023-05-21T01:54:30;16.60;;;9.50;;
24485;SDS011;13449;49.374;8.584;2023-05-21T01:56:58;15.57;;;9.95;;
24485;SDS011;13449;49.374;8.584;2023-05-21T01:59:28;19.67;;;10.82;;
24485;SDS011;13449;49.374;8.584;2023-05-21T02:01:55;19.45;;;10.63;;
24485;SDS011;13449;49.374;8.584;2023-05-21T02:04:22;18.27;;;9.70;;
24485;SDS011;13449;49.374;8.584;2023-05-21T02:06:48;22.40;;;11.05;;
24485;SDS011;13449;49.374;8.584;2023-05-21T02:09:14;22.92;;;10.15;;
24485;SDS011;13449;49.374;8.584;2023-05-21T02:11:41;24.50;;;11.18;;
24485;SDS011;13449;49.374;8.584;2023-05-21T02:14:10;18.33;;;10.23;;
24485;SDS011;13449;49.374;8.584;2023-05-21T02:16:39;16.95;;;9.25;;
24485;SDS011;13449;49.374;8.584;2023-05-21T02:19:07;16.92;;;9.80;;
24485;SDS011;13449;49.374;8.584;2023-05-21T02:21:35;23.42;;;10.68;;
24485;SDS011;13449;49.374;8.584;2023-05-21T02:24:02;20.25;;;11.40;;
24485;SDS011;13449;49.374;8.584;2023-05-21T02:26:28;20.58;;;9.82;;
24485;SDS011;13449;49.374;8.584;2023-05-21T02:28:55;20.38;;;10.73;;
24485;SDS011;13449;49.374;8.584;2023-05-21T02:31:22;19.35;;;9.38;;
24485;SDS011;13449;49.374;8.584;2023-05-21T02:33:48;23.70;;;10.50;;
24485;SDS011;13449;49.374;8.584;2023-05-21T02:36:18;21.30;;;11.25;;
24485;SDS011;13449;49.374;8.584;2023-05-21T02:38:44;15.25;;;10.10;;
24485;SDS011;13449;49.374;8.584;2023-05-21T02:41:11;21.88;;;9.90;;
24485;SDS011;13449;49.374;8.584;2023-05-21T02:43:41;17.25;;;9.43;;
24485;SDS011;13449;49.374;8.584;2023-05-21T02:46:07;22.63;;;10.68;;
24485;SDS011;13449;49.374;8.584;2023-05-21T02:48:34;17.27;;;10.48;;
24485;SDS011;13449;49.374;8.584;2023-05-21T02:51:03;22.55;;;10.23;;
24485;SDS011;13449;49.374;8.584;2023-05-21T02:53:29;19.25;;;10.43;;
24485;SDS011;13449;49.374;8.584;2023-05-21T02:55:56;17.42;;;10.65;;
24485;SDS011;13449;49.374;8.584;2023-05-21T02:58:22;18.05;;;10.25;;
24485;SDS011;13449;49.374;8.584;2023-05-21T03:00:50;21.45;;;9.93;;
24485;SDS011;13449;49.374;8.584;2023-05-21T03:03:17;16.58;;;9.07;;
24485;SDS011;13449;49.374;8.584;2023-05-21T03:05:44;21.58;;;11.60;;
24485;SDS011;13449;49.374;8.584;2023-05-21T03:08:11;17.80;;;9.95;;
24485;SDS011;13449;49.374;8.584;2023-05-21T03:10:37;17.60;;;9.38;;
24485;SDS011;13449;49.374;8.584;2023-05-21T03:13:04;18.65;;;10.57;;
24485;SDS011;13449;49.374;8.584;2023-05-21T03:15:35;19.65;;;10.07;;
24485;SDS011;13449;49.374;8.584;2023-05-21T03:18:04;22.23;;;10.23;;
24485;SDS011;13449;49.374;8.584;2023-05-21T03:20:31;20.02;;;9.70;;
24485;SDS011;13449;49.374;8.584;2023-05-21T03:22:57;27.67;;;12.57;;
24485;SDS011;13449;49.374;8.584;2023-05-21T03:25:25;16.95;;;9.85;;
24485;SDS011;13449;49.374;8.584;2023-05-21T03:27:52;17.77;;;9.48;;
24485;SDS011;13449;49.374;8.584;2023-05-21T03:30:18;17.95;;;8.60;;
24485;SDS011;13449;49.374;8.584;2023-05-21T03:32:45;18.85;;;10.23;;
24485;SDS011;13449;49.374;8.584;2023-05-21T03:35:12;19.15;;;9.95;;
24485;SDS011;13449;49.374;8.584;2023-05-21T03:37:39;18.15;;;9.45;;
24485;SDS011;13449;49.374;8.584;2023-05-21T03:40:06;19.92;;;10.15;;
24485;SDS011;13449;49.374;8.584;2023-05-21T03:42:32;17.23;;;9.98;;
24485;SDS011;13449;49.374;8.584;2023-05-21T03:44:59;18.48;;;10.23;;
24485;SDS011;13449;49.374;8.584;2023-05-21T03:47:26;18.95;;;11.38;;
24485;SDS011;13449;49.374;8.584;2023-05-21T03:49:52;20.30;;;10.85;;
24485;SDS011;13449;49.374;8.584;2023-05-21T03:52:19;16.15;;;10.10;;
24485;SDS011;13449;49.374;8.584;2023-05-21T03:54:45;18.63;;;9.95;;
24485;SDS011;13449;49.374;8.584;2023-05-21T03:57:12;21.52;;;9.98;;
24485;SDS011;13449;49.374;8.584;2023-05-21T03:59:38;18.70;;;9.77;;
24485;SDS011;13449;49.374;8.584;2023-05-21T04:02:04;23.73;;;10.50;;
24485;SDS011;13449;49.374;8.584;2023-05-21T04:04:31;16.52;;;9.73;;
24485;SDS011;13449;49.374;8.584;2023-05-21T04:06:59;15.65;;;9.15;;
24485;SDS011;13449;49.374;8.584;2023-05-21T04:09:26;19.20;;;10.73;;
24485;SDS011;13449;49.374;8.584;2023-05-21T04:11:52;21.50;;;10.23;;
24485;SDS011;13449;49.374;8.584;2023-05-21T04:14:21;17.52;;;9.45;;
24485;SDS011;13449;49.374;8.584;2023-05-21T04:16:48;16.58;;;10.38;;
24485;SDS011;13449;49.374;8.584;2023-05-21T04:19:15;19.33;;;10.85;;
24485;SDS011;13449;49.374;8.584;2023-05-21T04:21:41;21.80;;;10.90;;
24485;SDS011;13449;49.374;8.584;2023-05-21T04:24:10;19.25;;;9.95;;
24485;SDS011;13449;49.374;8.584;2023-05-21T04:26:39;20.40;;;10.25;;
24485;SDS011;13449;49.374;8.584;2023-05-21T04:29:07;27.10;;;11.63;;
24485;SDS011;13449;49.374;8.584;2023-05-21T04:31:35;18.48;;;10.52;;
24485;SDS011;13449;49.374;8.584;2023-05-21T04:34:01;17.27;;;9.93;;
24485;SDS011;13449;49.374;8.584;2023-05-21T04:36:28;27.25;;;10.52;;
24485;SDS011;13449;49.374;8.584;2023-05-21T04:38:55;18.58;;;10.52;;
24485;SDS011;13449;49.374;8.584;2023-05-21T04:41:21;27.80;;;10.07;;
24485;SDS011;13449;49.374;8.584;2023-05-21T04:43:48;17.25;;;10.15;;
24485;SDS011;13449;49.374;8.584;2023-05-21T04:46:14;16.65;;;9.77;;
24485;SDS011;13449;49.374;8.584;2023-05-21T04:48:41;18.48;;;11.13;;
24485;SDS011;13449;49.374;8.584;2023-05-21T04:51:10;18.23;;;10.23;;
24485;SDS011;13449;49.374;8.584;2023-05-21T04:53:40;18.02;;;10.32;;
24485;SDS011;13449;49.374;8.584;2023-05-21T04:56:07;16.08;;;9.32;;
24485;SDS011;13449;49.374;8.584;2023-05-21T04:58:34;20.85;;;10.60;;
24485;SDS011;13449;49.374;8.584;2023-05-21T05:01:01;20.50;;;9.88;;
24485;SDS011;13449;49.374;8.584;2023-05-21T05:03:29;25.75;;;9.75;;
24485;SDS011;13449;49.374;8.584;2023-05-21T05:05:55;30.15;;;10.55;;
24485;SDS011;13449;49.374;8.584;2023-05-21T05:08:22;18.65;;;10.00;;
24485;SDS011;13449;49.374;8.584;2023-05-21T05:10:48;17.67;;;9.95;;
24485;SDS011;13449;49.374;8.584;2023-05-21T05:13:15;18.73;;;8.80;;
24485;SDS011;13449;49.374;8.584;2023-05-21T05:15:41;18.92;;;10.48;;
24485;SDS011;13449;49.374;8.584;2023-05-21T05:18:15;15.48;;;9.52;;
24485;SDS011;13449;49.374;8.584;2023-05-21T05:20:41;19.25;;;10.40;;
24485;SDS011;13449;49.374;8.584;2023-05-21T05:23:08;14.18;;;8.98;;
24485;SDS011;13449;49.374;8.584;2023-05-21T05:25:35;16.27;;;9.98;;
24485;SDS011;13449;49.374;8.584;2023-05-21T05:28:04;12.43;;;8.10;;
24485;SDS011;13449;49.374;8.584;2023-05-21T05:30:31;15.60;;;10.15;;
24485;SDS011;13449;49.374;8.584;2023-05-21T05:32:57;22.10;;;11.25;;
24485;SDS011;13449;49.374;8.584;2023-05-21T05:35:24;19.70;;;10.32;;
24485;SDS011;13449;49.374;8.584;2023-05-21T05:37:51;17.13;;;9.25;;
24485;SDS011;13449;49.374;8.584;2023-05-21T05:40:17;21.10;;;10.48;;
24485;SDS011;13449;49.374;8.584;2023-05-21T05:42:46;17.20;;;9.70;;
24485;SDS011;13449;49.374;8.584;2023-05-21T05:45:14;15.80;;;9.48;;
24485;SDS011;13449;49.374;8.584;2023-05-21T05:47:41;18.15;;;10.18;;
24485;SDS011;13449;49.374;8.584;2023-05-21T05:50:07;15.93;;;9.98;;
24485;SDS011;13449;49.374;8.584;2023-05-21T05:52:34;17.77;;;10.00;;
24485;SDS011;13449;49.374;8.584;2023-05-21T05:55:01;13.35;;;7.70;;
24485;SDS011;13449;49.374;8.584;2023-05-21T05:57:27;21.67;;;9.88;;
24485;SDS011;13449;49.374;8.584;2023-05-21T05:59:54;14.45;;;8.98;;
24485;SDS011;13449;49.374;8.584;2023-05-21T06:02:21;15.38;;;8.63;;
24485;SDS011;13449;49.374;8.584;2023-05-21T06:04:47;17.20;;;8.75;;
24485;SDS011;13449;49.374;8.584;2023-05-21T06:07:14;21.75;;;10.77;;
24485;SDS011;13449;49.374;8.584;2023-05-21T06:09:40;17.27;;;9.35;;
24485;SDS011;13449;49.374;8.584;2023-05-21T06:12:09;17.77;;;9.70;;
24485;SDS011;13449;49.374;8.584;2023-05-21T06:14:40;14.50;;;8.73;;
24485;SDS011;13449;49.374;8.584;2023-05-21T06:17:10;14.00;;;8.77;;
24485;SDS011;13449;49.374;8.584;2023-05-21T06:19:38;17.35;;;9.75;;
24485;SDS011;13449;49.374;8.584;2023-05-21T06:22:07;16.42;;;9.70;;
24485;SDS011;13449;49.374;8.584;2023-05-21T06:24:33;13.52;;;8.93;;
24485;SDS011;13449;49.374;8.584;2023-05-21T06:27:00;17.90;;;8.93;;
24485;SDS011;13449;49.374;8.584;2023-05-21T06:29:27;17.65;;;10.10;;
24485;SDS011;13449;49.374;8.584;2023-05-21T06:31:53;14.63;;;8.18;;
24485;SDS011;13449;49.374;8.584;2023-05-21T06:34:20;15.43;;;9.40;;
24485;SDS011;13449;49.374;8.584;2023-05-21T06:36:46;15.77;;;9.65;;
24485;SDS011;13449;49.374;8.584;2023-05-21T06:39:13;17.77;;;9.57;;
24485;SDS011;13449;49.374;8.584;2023-05-21T06:41:40;16.75;;;8.20;;
24485;SDS011;13449;49.374;8.584;2023-05-21T06:44:06;14.95;;;9.05;;
24485;SDS011;13449;49.374;8.584;2023-05-21T06:46:33;13.45;;;9.40;;
24485;SDS011;13449;49.374;8.584;2023-05-21T06:49:03;11.57;;;8.10;;
24485;SDS011;13449;49.374;8.584;2023-05-21T06:51:32;19.33;;;9.67;;
24485;SDS011;13449;49.374;8.584;2023-05-21T06:53:58;17.90;;;9.48;;
24485;SDS011;13449;49.374;8.584;2023-05-21T06:56:25;16.13;;;8.82;;
24485;SDS011;13449;49.374;8.584;2023-05-21T06:58:52;16.23;;;9.30;;
24485;SDS011;13449;49.374;8.584;2023-05-21T07:01:19;18.60;;;8.02;;
24485;SDS011;13449;49.374;8.584;2023-05-21T07:03:47;14.98;;;9.18;;
24485;SDS011;13449;49.374;8.584;2023-05-21T07:06:16;13.50;;;9.18;;
24485;SDS011;13449;49.374;8.584;2023-05-21T07:08:43;14.75;;;8.32;;
24485;SDS011;13449;49.374;8.584;2023-05-21T07:11:09;15.25;;;8.55;;
24485;SDS011;13449;49.374;8.584;2023-05-21T07:13:36;19.17;;;9.23;;
24485;SDS011;13449;49.374;8.584;2023-05-21T07:16:03;21.95;;;8.30;;
24485;SDS011;13449;49.374;8.584;2023-05-21T07:18:29;11.93;;;7.40;;
24485;SDS011;13449;49.374;8.584;2023-05-21T07:20:56;10.00;;;7.93;;
24485;SDS011;13449;49.374;8.584;2023-05-21T07:23:23;12.57;;;8.30;;
24485;SDS011;13449;49.374;8.584;2023-05-21T07:25:50;11.07;;;8.02;;
24485;SDS011;13449;49.374;8.584;2023-05-21T07:28:16;16.00;;;8.20;;
24485;SDS011;13449;49.374;8.584;2023-05-21T07:30:43;11.13;;;7.35;;
24485;SDS011;13449;49.374;8.584;2023-05-21T07:33:10;10.50;;;7.20;;
24485;SDS011;13449;49.374;8.584;2023-05-21T07:35:37;15.68;;;8.07;;
24485;SDS011;13449;49.374;8.584;2023-05-21T07:38:04;10.63;;;7.05;;
24485;SDS011;13449;49.374;8.584;2023-05-21T07:40:31;11.68;;;8.68;;
24485;SDS011;13449;49.374;8.584;2023-05-21T07:42:58;11.73;;;7.53;;
24485;SDS011;13449;49.374;8.584;2023-05-21T07:45:27;13.52;;;8.20;;
24485;SDS011;13449;49.374;8.584;2023-05-21T07:47:53;12.43;;;8.00;;
24485;SDS011;13449;49.374;8.584;2023-05-21T07:50:20;13.18;;;7.63;;
24485;SDS011;13449;49.374;8.584;2023-05-21T07:52:47;10.25;;;7.13;;
24485;SDS011;13449;49.374;8.584;2023-05-21T07:55:15;10.82;;;7.28;;
24485;SDS011;13449;49.374;8.584;2023-05-21T07:57:41;11.38;;;8.18;;
24485;SDS011;13449;49.374;8.584;2023-05-21T08:00:08;13.82;;;7.88;;
24485;SDS011;13449;49.374;8.584;2023-05-21T08:02:37;10.93;;;7.53;;
24485;SDS011;13449;49.374;8.584;2023-05-21T08:05:03;22.33;;;8.30;;
24485;SDS011;13449;49.374;8.584;2023-05-21T08:07:33;11.85;;;6.60;;
24485;SDS011;13449;49.374;8.584;2023-05-21T08:10:10;9.18;;;6.25;;
24485;SDS011;13449;49.374;8.584;2023-05-21T08:12:36;9.65;;;6.60;;
24485;SDS011;13449;49.374;8.584;2023-05-21T08:15:03;12.05;;;8.05;;
24485;SDS011;13449;49.374;8.584;2023-05-21T08:17:29;12.30;;;7.25;;
24485;SDS011;13449;49.374;8.584;2023-05-21T08:19:56;15.00;;;7.47;;
24485;SDS011;13449;49.374;8.584;2023-05-21T08:22:22;10.13;;;7.00;;
24485;SDS011;13449;49.374;8.584;2023-05-21T08:24:49;13.63;;;7.20;;
24485;SDS011;13449;49.374;8.584;2023-05-21T08:27:16;9.63;;;6.68;;
24485;SDS011;13449;49.374;8.584;2023-05-21T08:29:47;11.65;;;6.40;;
24485;SDS011;13449;49.374;8.584;2023-05-21T08:32:14;10.45;;;7.45;;
24485;SDS011;13449;49.374;8.584;2023-05-21T08:34:40;12.02;;;6.53;;
24485;SDS011;13449;49.374;8.584;2023-05-21T08:37:07;9.88;;;6.97;;
24485;SDS011;13449;49.374;8.584;2023-05-21T08:39:36;9.20;;;6.85;;
24485;SDS011;13449;49.374;8.584;2023-05-21T08:42:10;9.95;;;6.03;;
24485;SDS011;13449;49.374;8.584;2023-05-21T08:45:03;15.02;;;6.95;;
24485;SDS011;13449;49.374;8.584;2023-05-21T08:47:33;13.70;;;6.82;;
24485;SDS011;13449;49.374;8.584;2023-05-21T08:50:03;14.45;;;7.30;;
24485;SDS011;13449;49.374;8.584;2023-05-21T08:52:31;10.02;;;7.15;;
24485;SDS011;13449;49.374;8.584;2023-05-21T08:55:00;9.70;;;6.72;;
24485;SDS011;13449;49.374;8.584;2023-05-21T08:57:29;12.35;;;7.13;;
24485;SDS011;13449;49.374;8.584;2023-05-21T08:59:57;12.25;;;6.60;;
24485;SDS011;13449;49.374;8.584;2023-05-21T09:02:28;9.15;;;6.07;;
24485;SDS011;13449;49.374;8.584;2023-05-21T09:04:59;12.60;;;7.00;;
24485;SDS011;13449;49.374;8.584;2023-05-21T09:07:29;8.05;;;6.13;;
24485;SDS011;13449;49.374;8.584;2023-05-21T09:10:03;13.90;;;6.13;;
24485;SDS011;13449;49.374;8.584;2023-05-21T09:12:37;8.55;;;6.82;;
24485;SDS011;13449;49.374;8.584;2023-05-21T09:15:04;11.02;;;6.72;;
24485;SDS011;13449;49.374;8.584;2023-05-21T09:17:32;14.75;;;6.95;;
24485;SDS011;13449;49.374;8.584;2023-05-21T09:22:39;11.43;;;6.72;;
24485;SDS011;13449;49.374;8.584;2023-05-21T09:25:16;10.02;;;6.72;;
24485;SDS011;13449;49.374;8.584;2023-05-21T09:27:48;9.68;;;6.40;;
24485;SDS011;13449;49.374;8.584;2023-05-21T09:30:19;9.13;;;5.95;;
24485;SDS011;13449;49.374;8.584;2023-05-21T09:32:57;8.32;;;6.13;;
24485;SDS011;13449;49.374;8.584;2023-05-21T09:35:24;9.27;;;5.60;;
24485;SDS011;13449;49.374;8.584;2023-05-21T09:37:54;12.85;;;6.25;;
24485;SDS011;13449;49.374;8.584;2023-05-21T09:40:25;11.32;;;6.53;;
24485;SDS011;13449;49.374;8.584;2023-05-21T09:42:52;7.25;;;5.38;;
24485;SDS011;13449;49.374;8.584;2023-05-21T09:45:20;9.15;;;6.57;;
24485;SDS011;13449;49.374;8.584;2023-05-21T09:47:49;9.57;;;6.18;;
24485;SDS011;13449;49.374;8.584;2023-05-21T09:50:21;8.18;;;5.90;;
24485;SDS011;13449;49.374;8.584;2023-05-21T09:52:50;8.50;;;5.97;;
24485;SDS011;13449;49.374;8.584;2023-05-21T09:55:20;8.02;;;6.00;;
24485;SDS011;13449;49.374;8.584;2023-05-21T09:57:48;10.73;;;6.65;;
24485;SDS011;13449;49.374;8.584;2023-05-21T10:00:23;12.43;;;6.45;;
24485;SDS011;13449;49.374;8.584;2023-05-21T10:02:53;11.02;;;6.43;;
24485;SDS011;13449;49.374;8.584;2023-05-21T10:05:21;9.75;;;6.90;;
24485;SDS011;13449;49.374;8.584;2023-05-21T10:07:52;8.70;;;6.57;;
24485;SDS011;13449;49.374;8.584;2023-05-21T10:10:25;10.50;;;6.93;;
24485;SDS011;13449;49.374;8.584;2023-05-21T10:12:56;9.18;;;6.25;;
24485;SDS011;13449;49.374;8.584;2023-05-21T10:15:24;9.63;;;6.32;;
24485;SDS011;13449;49.374;8.584;2023-05-21T10:17:53;11.57;;;6.10;;
24485;SDS011;13449;49.374;8.584;2023-05-21T10:20:21;9.15;;;6.10;;
24485;SDS011;13449;49.374;8.584;2023-05-21T10:22:48;7.63;;;5.90;;
24485;SDS011;13449;49.374;8.584;2023-05-21T10:25:15;9.18;;;6.30;;
24485;SDS011;13449;49.374;8.584;2023-05-21T10:27:42;9.60;;;7.18;;
24485;SDS011;13449;49.374;8.584;2023-05-21T10:30:12;8.85;;;5.35;;
24485;SDS011;13449;49.374;8.584;2023-05-21T10:32:39;9.80;;;6.43;;
24485;SDS011;13449;49.374;8.584;2023-05-21T10:35:12;11.55;;;6.80;;
24485;SDS011;13449;49.374;8.584;2023-05-21T10:37:44;9.05;;;6.43;;
24485;SDS011;13449;49.374;8.584;2023-05-21T10:40:11;8.68;;;6.45;;
24485;SDS011;13449;49.374;8.584;2023-05-21T10:42:51;9.93;;;6.45;;
24485;SDS011;13449;49.374;8.584;2023-05-21T10:48:27;9.70;;;6.32;;
24485;SDS011;13449;49.374;8.584;2023-05-21T10:56:24;8.38;;;6.13;;
24485;SDS011;13449;49.374;8.584;2023-05-21T10:59:13;9.75;;;6.20;;
24485;SDS011;13449;49.374;8.584;2023-05-21T11:04:15;6.40;;;5.47;;
24485;SDS011;13449;49.374;8.584;2023-05-21T11:06:47;8.43;;;6.03;;
24485;SDS011;13449;49.374;8.584;2023-05-21T11:09:14;9.10;;;6.15;;
24485;SDS011;13449;49.374;8.584;2023-05-21T11:11:42;7.18;;;6.47;;
24485;SDS011;13449;49.374;8.584;2023-05-21T11:14:27;9.43;;;5.78;;
24485;SDS011;13449;49.374;8.584;2023-05-21T11:16:53;9.27;;;6.63;;
24485;SDS011;13449;49.374;8.584;2023-05-21T11:19:20;8.73;;;6.43;;
24485;SDS011;13449;49.374;8.584;2023-05-21T11:21:50;9.25;;;6.50;;
24485;SDS011;13449;49.374;8.584;2023-05-21T11:24:22;11.07;;;6.20;;
24485;SDS011;13449;49.374;8.584;2023-05-21T11:29:24;8.23;;;5.93;;
24485;SDS011;13449;49.374;8.584;2023-05-21T11:31:58;8.20;;;6.00;;
24485;SDS011;13449;49.374;8.584;2023-05-21T11:35:02;14.15;;;6.55;;
24485;SDS011;13449;49.374;8.584;2023-05-21T11:37:25;8.75;;;5.80;;
24485;SDS011;13449;49.374;8.584;2023-05-21T11:39:56;9.77;;;6.88;;
24485;SDS011;13449;49.374;8.584;2023-05-21T11:42:30;9.25;;;6.32;;
24485;SDS011;13449;49.374;8.584;2023-05-21T11:45:04;8.93;;;6.18;;
24485;SDS011;13449;49.374;8.584;2023-05-21T11:47:31;9.82;;;5.80;;
24485;SDS011;13449;49.374;8.584;2023-05-21T11:49:58;8.00;;;6.00;;
24485;SDS011;13449;49.374;8.584;2023-05-21T11:52:27;12.48;;;6.00;;
24485;SDS011;13449;49.374;8.584;2023-05-21T11:57:26;9.88;;;5.53;;
24485;SDS011;13449;49.374;8.584;2023-05-21T12:02:30;7.22;;;5.43;;
24485;SDS011;13449;49.374;8.584;2023-05-21T12:04:57;8.15;;;5.07;;
24485;SDS011;13449;49.374;8.584;2023-05-21T12:07:31;8.27;;;5.93;;
24485;SDS011;13449;49.374;8.584;2023-05-21T12:09:58;8.15;;;5.75;;
24485;SDS011;13449;49.374;8.584;2023-05-21T12:12:26;6.65;;;5.35;;
24485;SDS011;13449;49.374;8.584;2023-05-21T12:15:07;11.38;;;6.18;;
24485;SDS011;13449;49.374;8.584;2023-05-21T12:17:35;6.18;;;4.88;;
24485;SDS011;13449;49.374;8.584;2023-05-21T12:20:01;7.88;;;5.32;;
24485;SDS011;13449;49.374;8.584;2023-05-21T12:25:00;6.18;;;5.43;;
24485;SDS011;13449;49.374;8.584;2023-05-21T12:27:27;6.13;;;4.90;;
24485;SDS011;13449;49.374;8.584;2023-05-21T12:30:00;9.25;;;5.45;;
24485;SDS011;13449;49.374;8.584;2023-05-21T12:32:26;7.43;;;5.07;;
24485;SDS011;13449;49.374;8.584;2023-05-21T12:34:54;6.20;;;5.22;;
24485;SDS011;13449;49.374;8.584;2023-05-21T12:37:25;8.88;;;5.30;;
24485;SDS011;13449;49.374;8.584;2023-05-21T12:39:58;7.60;;;5.65;;
24485;SDS011;13449;49.374;8.584;2023-05-21T12:42:32;7.97;;;5.75;;
24485;SDS011;13449;49.374;8.584;2023-05-21T12:45:05;7.20;;;5.05;;
24485;SDS011;13449;49.374;8.584;2023-05-21T12:47:36;11.63;;;5.43;;
24485;SDS011;13449;49.374;8.584;2023-05-21T12:50:04;9.45;;;5.20;;
24485;SDS011;13449;49.374;8.584;2023-05-21T12:52:34;7.40;;;4.97;;
24485;SDS011;13449;49.374;8.584;2023-05-21T12:55:01;6.28;;;4.97;;
24485;SDS011;13449;49.374;8.584;2023-05-21T12:57:34;5.07;;;4.55;;
24485;SDS011;13449;49.374;8.584;2023-05-21T13:00:04;6.55;;;4.40;;
24485;SDS011;13449;49.374;8.584;2023-05-21T13:02:41;13.20;;;4.35;;
24485;SDS011;13449;49.374;8.584;2023-05-21T13:05:10;7.57;;;3.45;;
24485;SDS011;13449;49.374;8.584;2023-05-21T13:07:45;5.00;;;3.67;;
24485;SDS011;13449;49.374;8.584;2023-05-21T13:10:14;3.80;;;3.33;;
24485;SDS011;13449;49.374;8.584;2023-05-21T13:12:42;5.82;;;3.80;;
24485;SDS011;13449;49.374;8.584;2023-05-21T13:15:10;5.53;;;3.78;;
24485;SDS011;13449;49.374;8.584;2023-05-21T13:17:36;4.63;;;3.97;;
24485;SDS011;13449;49.374;8.584;2023-05-21T13:25:13;7.55;;;4.03;;
24485;SDS011;13449;49.374;8.584;2023-05-21T13:27:49;8.95;;;4.05;;
24485;SDS011;13449;49.374;8.584;2023-05-21T13:30:17;5.93;;;4.18;;
24485;SDS011;13449;49.374;8.584;2023-05-21T13:32:44;4.65;;;4.07;;
24485;SDS011;13449;49.374;8.584;2023-05-21T13:35:11;4.28;;;3.88;;
24485;SDS011;13449;49.374;8.584;2023-05-21T13:37:40;4.68;;;3.47;;
24485;SDS011;13449;49.374;8.584;2023-05-21T13:40:10;4.05;;;3.55;;
24485;SDS011;13449;49.374;8.584;2023-05-21T13:42:41;7.45;;;3.80;;
24485;SDS011;13449;49.374;8.584;2023-05-21T13:45:09;6.15;;;3.70;;
24485;SDS011;13449;49.374;8.584;2023-05-21T13:47:37;6.47;;;4.10;;
24485;SDS011;13449;49.374;8.584;2023-05-21T13:50:06;6.15;;;4.00;;
24485;SDS011;13449;49.374;8.584;2023-05-21T13:52:34;6.47;;;4.55;;
24485;SDS011;13449;49.374;8.584;2023-05-21T13:55:05;6.07;;;4.35;;
24485;SDS011;13449;49.374;8.584;2023-05-21T13:57:32;7.43;;;4.33;;
24485;SDS011;13449;49.374;8.584;2023-05-21T14:00:01;9.10;;;4.18;;
24485;SDS011;13449;49.374;8.584;2023-05-21T14:02:28;7.55;;;3.72;;
24485;SDS011;13449;49.374;8.584;2023-05-21T14:04:55;4.40;;;4.00;;
24485;SDS011;13449;49.374;8.584;2023-05-21T14:07:24;5.97;;;3.97;;
24485;SDS011;13449;49.374;8.584;2023-05-21T14:09:53;7.90;;;3.80;;
24485;SDS011;13449;49.374;8.584;2023-05-21T14:12:19;7.30;;;4.20;;
24485;SDS011;13449;49.374;8.584;2023-05-21T14:14:46;6.15;;;4.18;;
24485;SDS011;13449;49.374;8.584;2023-05-21T14:17:15;5.00;;;4.25;;
24485;SDS011;13449;49.374;8.584;2023-05-21T14:19:43;6.65;;;4.00;;
24485;SDS011;13449;49.374;8.584;2023-05-21T14:22:13;8.35;;;4.40;;
24485;SDS011;13449;49.374;8.584;2023-05-21T14:24:39;9.52;;;4.05;;
24485;SDS011;13449;49.374;8.584;2023-05-21T14:27:06;5.00;;;3.35;;
24485;SDS011;13449;49.374;8.584;2023-05-21T14:29:35;4.82;;;3.85;;
24485;SDS011;13449;49.374;8.584;2023-05-21T14:32:05;9.75;;;4.25;;
24485;SDS011;13449;49.374;8.584;2023-05-21T14:34:35;6.15;;;3.92;;
24485;SDS011;13449;49.374;8.584;2023-05-21T14:37:03;9.40;;;3.90;;
24485;SDS011;13449;49.374;8.584;2023-05-21T14:39:30;3.67;;;3.35;;
24485;SDS011;13449;49.374;8.584;2023-05-21T14:41:56;9.20;;;4.15;;
24485;SDS011;13449;49.374;8.584;2023-05-21T14:44:22;7.40;;;4.15;;
24485;SDS011;13449;49.374;8.584;2023-05-21T14:46:49;4.38;;;3.70;;
24485;SDS011;13449;49.374;8.584;2023-05-21T14:49:18;4.10;;;3.65;;
24485;SDS011;13449;49.374;8.584;2023-05-21T14:51:45;9.07;;;3.63;;
24485;SDS011;13449;49.374;8.584;2023-05-21T14:54:12;4.88;;;4.15;;
24485;SDS011;13449;49.374;8.584;2023-05-21T14:56:44;4.93;;;3.67;;
24485;SDS011;13449;49.374;8.584;2023-05-21T14:59:11;4.55;;;3.95;;
24485;SDS011;13449;49.374;8.584;2023-05-21T15:01:43;4.25;;;3.75;;
24485;SDS011;13449;49.374;8.584;2023-05-21T15:04:12;6.47;;;4.57;;
24485;SDS011;13449;49.374;8.584;2023-05-21T15:06:38;5.55;;;4.05;;
24485;SDS011;13449;49.374;8.584;2023-05-21T15:09:09;11.00;;;3.97;;
24485;SDS011;13449;49.374;8.584;2023-05-21T15:11:38;6.07;;;4.10;;
24485;SDS011;13449;49.374;8.584;2023-05-21T15:14:08;8.38;;;3.95;;
24485;SDS011;13449;49.374;8.584;2023-05-21T15:16:35;7.53;;;3.78;;